sensor_id;sensor_type;location;lat;lon;timestamp;P1;durP1;ratioP1;P2;durP2;ratioP2
60969;SDS011;46841;48.938;9.502;2024-01-10T00:02:01;1.20;;;1.20;;
60969;SDS011;46841;48.938;9.502;2024-01-10T00:04:26;1.30;;;1.30;;
60969;SDS011;46841;48.938;9.502;2024-01-10T00:06:52;1.30;;;1.30;;
60969;SDS011;46841;48.938;9.502;2024-01-10T00:09:17;1.30;;;1.30;;
60969;SDS011;46841;48.938;9.502;2024-01-10T00:11:43;1.20;;;1.20;;
60969;SDS011;46841;48.938;9.502;2024-01-10T00:14:09;1.30;;;1.30;;
60969;SDS011;46841;48.938;9.502;2024-01-10T00:16:35;1.30;;;1.30;;
60969;SDS011;46841;48.938;9.502;2024-01-10T00:19:00;1.30;;;1.30;;
60969;SDS011;46841;48.938;9.502;2024-01-10T00:21:29;1.30;;;1.30;;
60969;SDS011;46841;48.938;9.502;2024-01-10T00:23:57;1.15;;;1.15;;
60969;SDS011;46841;48.938;9.502;2024-01-10T00:26:23;1.30;;;1.30;;
60969;SDS011;46841;48.938;9.502;2024-01-10T00:28:49;1.30;;;1.30;;
60969;SDS011;46841;48.938;9.502;2024-01-10T00:31:14;1.20;;;1.20;;
60969;SDS011;46841;48.938;9.502;2024-01-10T00:33:40;1.25;;;1.25;;
60969;SDS011;46841;48.938;9.502;2024-01-10T00:36:06;1.30;;;1.30;;
60969;SDS011;46841;48.938;9.502;2024-01-10T00:38:33;1.20;;;1.20;;
60969;SDS011;46841;48.938;9.502;2024-01-10T00:40:59;1.30;;;1.30;;
60969;SDS011;46841;48.938;9.502;2024-01-10T00:43:24;1.25;;;1.25;;
60969;SDS011;46841;48.938;9.502;2024-01-10T00:45:50;1.20;;;1.20;;
60969;SDS011;46841;48.938;9.502;2024-01-10T00:48:16;1.20;;;1.20;;
60969;SDS011;46841;48.938;9.502;2024-01-10T00:50:43;1.35;;;1.35;;
60969;SDS011;46841;48.938;9.502;2024-01-10T00:53:09;1.30;;;1.30;;
60969;SDS011;46841;48.938;9.502;2024-01-10T00:55:35;1.30;;;1.30;;
60969;SDS011;46841;48.938;9.502;2024-01-10T00:58:01;1.20;;;1.20;;
60969;SDS011;46841;48.938;9.502;2024-01-10T01:00:26;1.30;;;1.30;;
60969;SDS011;46841;48.938;9.502;2024-01-10T01:02:52;1.30;;;1.30;;
60969;SDS011;46841;48.938;9.502;2024-01-10T01:05:18;1.30;;;1.30;;
60969;SDS011;46841;48.938;9.502;2024-01-10T01:07:45;1.30;;;1.30;;
60969;SDS011;46841;48.938;9.502;2024-01-10T01:10:10;1.30;;;1.30;;
60969;SDS011;46841;48.938;9.502;2024-01-10T01:12:36;1.30;;;1.30;;
60969;SDS011;46841;48.938;9.502;2024-01-10T01:15:02;1.30;;;1.30;;
60969;SDS011;46841;48.938;9.502;2024-01-10T01:17:27;1.20;;;1.20;;
60969;SDS011;46841;48.938;9.502;2024-01-10T01:19:54;1.20;;;1.20;;
60969;SDS011;46841;48.938;9.502;2024-01-10T01:22:21;1.30;;;1.30;;
60969;SDS011;46841;48.938;9.502;2024-01-10T01:24:46;1.20;;;1.20;;
60969;SDS011;46841;48.938;9.502;2024-01-10T01:27:12;1.20;;;1.20;;
60969;SDS011;46841;48.938;9.502;2024-01-10T01:29:38;1.30;;;1.30;;
60969;SDS011;46841;48.938;9.502;2024-01-10T01:32:04;1.20;;;1.20;;
60969;SDS011;46841;48.938;9.502;2024-01-10T01:34:31;1.20;;;1.20;;
60969;SDS011;46841;48.938;9.502;2024-01-10T01:36:56;1.30;;;1.30;;
60969;SDS011;46841;48.938;9.502;2024-01-10T01:39:22;1.30;;;1.30;;
60969;SDS011;46841;48.938;9.502;2024-01-10T01:41:47;1.33;;;1.33;;
60969;SDS011;46841;48.938;9.502;2024-01-10T01:44:13;1.20;;;1.20;;
60969;SDS011;46841;48.938;9.502;2024-01-10T01:46:39;1.30;;;1.30;;
60969;SDS011;46841;48.938;9.502;2024-01-10T01:49:08;1.20;;;1.20;;
60969;SDS011;46841;48.938;9.502;2024-01-10T01:54:02;1.30;;;1.30;;
60969;SDS011;46841;48.938;9.502;2024-01-10T01:56:31;1.20;;;1.20;;
60969;SDS011;46841;48.938;9.502;2024-01-10T01:58:56;1.25;;;1.25;;
60969;SDS011;46841;48.938;9.502;2024-01-10T02:01:22;1.17;;;1.17;;
60969;SDS011;46841;48.938;9.502;2024-01-10T02:03:48;1.30;;;1.30;;
60969;SDS011;46841;48.938;9.502;2024-01-10T02:06:14;1.30;;;1.30;;
60969;SDS011;46841;48.938;9.502;2024-01-10T02:08:40;1.30;;;1.30;;
60969;SDS011;46841;48.938;9.502;2024-01-10T02:11:06;1.27;;;1.27;;
60969;SDS011;46841;48.938;9.502;2024-01-10T02:13:32;1.30;;;1.30;;
60969;SDS011;46841;48.938;9.502;2024-01-10T02:15:58;1.20;;;1.20;;
60969;SDS011;46841;48.938;9.502;2024-01-10T02:20:51;1.20;;;1.20;;
60969;SDS011;46841;48.938;9.502;2024-01-10T02:23:18;1.30;;;1.30;;
60969;SDS011;46841;48.938;9.502;2024-01-10T02:25:43;1.30;;;1.30;;
60969;SDS011;46841;48.938;9.502;2024-01-10T02:28:09;1.30;;;1.30;;
60969;SDS011;46841;48.938;9.502;2024-01-10T02:30:35;1.20;;;1.20;;
60969;SDS011;46841;48.938;9.502;2024-01-10T02:33:01;1.30;;;1.30;;
60969;SDS011;46841;48.938;9.502;2024-01-10T02:35:28;1.27;;;1.27;;
60969;SDS011;46841;48.938;9.502;2024-01-10T02:37:55;1.30;;;1.30;;
60969;SDS011;46841;48.938;9.502;2024-01-10T02:40:21;1.23;;;1.23;;
60969;SDS011;46841;48.938;9.502;2024-01-10T02:42:48;1.20;;;1.20;;
60969;SDS011;46841;48.938;9.502;2024-01-10T02:45:13;1.20;;;1.20;;
60969;SDS011;46841;48.938;9.502;2024-01-10T02:47:39;1.20;;;1.20;;
60969;SDS011;46841;48.938;9.502;2024-01-10T02:50:05;1.30;;;1.30;;
60969;SDS011;46841;48.938;9.502;2024-01-10T02:52:31;1.30;;;1.30;;
60969;SDS011;46841;48.938;9.502;2024-01-10T02:54:57;1.20;;;1.20;;
60969;SDS011;46841;48.938;9.502;2024-01-10T02:57:22;1.20;;;1.20;;
60969;SDS011;46841;48.938;9.502;2024-01-10T02:59:48;1.20;;;1.20;;
60969;SDS011;46841;48.938;9.502;2024-01-10T03:02:14;1.20;;;1.20;;
60969;SDS011;46841;48.938;9.502;2024-01-10T03:04:41;1.30;;;1.30;;
60969;SDS011;46841;48.938;9.502;2024-01-10T03:07:07;1.30;;;1.30;;
60969;SDS011;46841;48.938;9.502;2024-01-10T03:09:32;1.30;;;1.30;;
60969;SDS011;46841;48.938;9.502;2024-01-10T03:11:59;1.27;;;1.27;;
60969;SDS011;46841;48.938;9.502;2024-01-10T03:14:25;1.20;;;1.20;;
60969;SDS011;46841;48.938;9.502;2024-01-10T03:16:51;1.20;;;1.20;;
60969;SDS011;46841;48.938;9.502;2024-01-10T03:19:18;1.20;;;1.20;;
60969;SDS011;46841;48.938;9.502;2024-01-10T03:21:43;1.30;;;1.30;;
60969;SDS011;46841;48.938;9.502;2024-01-10T03:24:09;1.20;;;1.20;;
60969;SDS011;46841;48.938;9.502;2024-01-10T03:26:34;1.30;;;1.30;;
60969;SDS011;46841;48.938;9.502;2024-01-10T03:29:00;1.30;;;1.30;;
60969;SDS011;46841;48.938;9.502;2024-01-10T03:31:29;1.38;;;1.38;;
60969;SDS011;46841;48.938;9.502;2024-01-10T03:33:55;1.30;;;1.30;;
60969;SDS011;46841;48.938;9.502;2024-01-10T03:36:21;1.20;;;1.20;;
60969;SDS011;46841;48.938;9.502;2024-01-10T03:38:47;1.30;;;1.30;;
60969;SDS011;46841;48.938;9.502;2024-01-10T03:41:17;1.30;;;1.30;;
60969;SDS011;46841;48.938;9.502;2024-01-10T03:43:47;1.30;;;1.30;;
60969;SDS011;46841;48.938;9.502;2024-01-10T03:46:13;1.30;;;1.30;;
60969;SDS011;46841;48.938;9.502;2024-01-10T03:48:39;1.20;;;1.20;;
60969;SDS011;46841;48.938;9.502;2024-01-10T03:51:16;1.30;;;1.30;;
60969;SDS011;46841;48.938;9.502;2024-01-10T03:53:42;1.30;;;1.30;;
60969;SDS011;46841;48.938;9.502;2024-01-10T03:56:09;1.20;;;1.20;;
60969;SDS011;46841;48.938;9.502;2024-01-10T03:58:36;1.20;;;1.20;;
60969;SDS011;46841;48.938;9.502;2024-01-10T04:01:05;1.33;;;1.33;;
60969;SDS011;46841;48.938;9.502;2024-01-10T04:03:33;1.20;;;1.20;;
60969;SDS011;46841;48.938;9.502;2024-01-10T04:06:03;1.30;;;1.30;;
60969;SDS011;46841;48.938;9.502;2024-01-10T04:08:28;1.38;;;1.38;;
60969;SDS011;46841;48.938;9.502;2024-01-10T04:10:55;1.33;;;1.33;;
60969;SDS011;46841;48.938;9.502;2024-01-10T04:13:21;1.30;;;1.30;;
60969;SDS011;46841;48.938;9.502;2024-01-10T04:15:46;1.30;;;1.30;;
60969;SDS011;46841;48.938;9.502;2024-01-10T04:18:12;1.27;;;1.27;;
60969;SDS011;46841;48.938;9.502;2024-01-10T04:20:38;1.10;;;1.10;;
60969;SDS011;46841;48.938;9.502;2024-01-10T04:23:03;1.20;;;1.20;;
60969;SDS011;46841;48.938;9.502;2024-01-10T04:25:29;1.30;;;1.30;;
60969;SDS011;46841;48.938;9.502;2024-01-10T04:27:54;1.20;;;1.20;;
60969;SDS011;46841;48.938;9.502;2024-01-10T04:30:20;1.30;;;1.30;;
60969;SDS011;46841;48.938;9.502;2024-01-10T04:32:46;1.30;;;1.30;;
60969;SDS011;46841;48.938;9.502;2024-01-10T04:35:12;1.30;;;1.30;;
60969;SDS011;46841;48.938;9.502;2024-01-10T04:37:37;1.30;;;1.30;;
60969;SDS011;46841;48.938;9.502;2024-01-10T04:40:03;1.30;;;1.30;;
60969;SDS011;46841;48.938;9.502;2024-01-10T04:42:30;1.20;;;1.20;;
60969;SDS011;46841;48.938;9.502;2024-01-10T04:44:56;1.25;;;1.25;;
60969;SDS011;46841;48.938;9.502;2024-01-10T04:47:21;1.23;;;1.23;;
60969;SDS011;46841;48.938;9.502;2024-01-10T04:49:47;1.40;;;1.40;;
60969;SDS011;46841;48.938;9.502;2024-01-10T04:52:15;1.30;;;1.30;;
60969;SDS011;46841;48.938;9.502;2024-01-10T04:54:40;1.30;;;1.30;;
60969;SDS011;46841;48.938;9.502;2024-01-10T04:57:06;1.35;;;1.35;;
60969;SDS011;46841;48.938;9.502;2024-01-10T04:59:32;1.30;;;1.30;;
60969;SDS011;46841;48.938;9.502;2024-01-10T05:01:58;1.30;;;1.30;;
60969;SDS011;46841;48.938;9.502;2024-01-10T05:04:24;1.27;;;1.27;;
60969;SDS011;46841;48.938;9.502;2024-01-10T05:06:50;1.20;;;1.20;;
60969;SDS011;46841;48.938;9.502;2024-01-10T05:09:16;1.30;;;1.30;;
60969;SDS011;46841;48.938;9.502;2024-01-10T05:11:43;1.40;;;1.40;;
60969;SDS011;46841;48.938;9.502;2024-01-10T05:14:12;1.25;;;1.25;;
60969;SDS011;46841;48.938;9.502;2024-01-10T05:16:37;1.23;;;1.23;;
60969;SDS011;46841;48.938;9.502;2024-01-10T05:19:03;1.27;;;1.27;;
60969;SDS011;46841;48.938;9.502;2024-01-10T05:21:30;1.30;;;1.30;;
60969;SDS011;46841;48.938;9.502;2024-01-10T05:23:58;1.30;;;1.30;;
60969;SDS011;46841;48.938;9.502;2024-01-10T05:26:24;1.30;;;1.30;;
60969;SDS011;46841;48.938;9.502;2024-01-10T05:28:49;1.20;;;1.20;;
60969;SDS011;46841;48.938;9.502;2024-01-10T05:31:15;1.30;;;1.30;;
60969;SDS011;46841;48.938;9.502;2024-01-10T05:33:40;1.30;;;1.30;;
60969;SDS011;46841;48.938;9.502;2024-01-10T05:36:08;1.20;;;1.20;;
60969;SDS011;46841;48.938;9.502;2024-01-10T05:38:37;1.30;;;1.30;;
60969;SDS011;46841;48.938;9.502;2024-01-10T05:41:02;1.25;;;1.25;;
60969;SDS011;46841;48.938;9.502;2024-01-10T05:43:28;1.30;;;1.30;;
60969;SDS011;46841;48.938;9.502;2024-01-10T05:45:53;1.30;;;1.30;;
60969;SDS011;46841;48.938;9.502;2024-01-10T05:48:19;1.30;;;1.30;;
60969;SDS011;46841;48.938;9.502;2024-01-10T05:50:44;1.30;;;1.30;;
60969;SDS011;46841;48.938;9.502;2024-01-10T05:53:10;1.30;;;1.30;;
60969;SDS011;46841;48.938;9.502;2024-01-10T05:55:37;1.30;;;1.30;;
60969;SDS011;46841;48.938;9.502;2024-01-10T05:58:03;1.30;;;1.30;;
60969;SDS011;46841;48.938;9.502;2024-01-10T06:00:29;1.30;;;1.30;;
60969;SDS011;46841;48.938;9.502;2024-01-10T06:02:54;1.30;;;1.30;;
60969;SDS011;46841;48.938;9.502;2024-01-10T06:05:20;1.30;;;1.30;;
60969;SDS011;46841;48.938;9.502;2024-01-10T06:07:45;1.30;;;1.30;;
60969;SDS011;46841;48.938;9.502;2024-01-10T06:10:12;1.40;;;1.40;;
60969;SDS011;46841;48.938;9.502;2024-01-10T06:12:37;1.20;;;1.20;;
60969;SDS011;46841;48.938;9.502;2024-01-10T06:15:03;1.30;;;1.30;;
60969;SDS011;46841;48.938;9.502;2024-01-10T06:17:29;1.20;;;1.20;;
60969;SDS011;46841;48.938;9.502;2024-01-10T06:19:58;1.30;;;1.30;;
60969;SDS011;46841;48.938;9.502;2024-01-10T06:22:28;1.30;;;1.30;;
60969;SDS011;46841;48.938;9.502;2024-01-10T06:24:57;1.27;;;1.27;;
60969;SDS011;46841;48.938;9.502;2024-01-10T06:27:34;1.23;;;1.23;;
60969;SDS011;46841;48.938;9.502;2024-01-10T06:30:04;1.20;;;1.20;;
60969;SDS011;46841;48.938;9.502;2024-01-10T06:34:58;1.30;;;1.30;;
60969;SDS011;46841;48.938;9.502;2024-01-10T06:37:27;1.30;;;1.30;;
60969;SDS011;46841;48.938;9.502;2024-01-10T06:40:09;1.30;;;1.30;;
60969;SDS011;46841;48.938;9.502;2024-01-10T06:42:35;1.30;;;1.30;;
60969;SDS011;46841;48.938;9.502;2024-01-10T06:45:03;1.30;;;1.30;;
60969;SDS011;46841;48.938;9.502;2024-01-10T06:47:31;1.30;;;1.30;;
60969;SDS011;46841;48.938;9.502;2024-01-10T06:49:57;1.30;;;1.30;;
60969;SDS011;46841;48.938;9.502;2024-01-10T06:52:22;1.30;;;1.30;;
60969;SDS011;46841;48.938;9.502;2024-01-10T06:54:48;1.20;;;1.20;;
60969;SDS011;46841;48.938;9.502;2024-01-10T06:57:14;1.30;;;1.30;;
60969;SDS011;46841;48.938;9.502;2024-01-10T06:59:40;1.23;;;1.23;;
60969;SDS011;46841;48.938;9.502;2024-01-10T07:02:05;1.20;;;1.20;;
60969;SDS011;46841;48.938;9.502;2024-01-10T07:04:31;1.30;;;1.30;;
60969;SDS011;46841;48.938;9.502;2024-01-10T07:06:57;1.20;;;1.20;;
60969;SDS011;46841;48.938;9.502;2024-01-10T07:09:23;1.20;;;1.20;;
60969;SDS011;46841;48.938;9.502;2024-01-10T07:11:50;1.20;;;1.20;;
60969;SDS011;46841;48.938;9.502;2024-01-10T07:14:15;1.30;;;1.30;;
60969;SDS011;46841;48.938;9.502;2024-01-10T07:16:41;1.20;;;1.20;;
60969;SDS011;46841;48.938;9.502;2024-01-10T07:19:10;1.20;;;1.20;;
60969;SDS011;46841;48.938;9.502;2024-01-10T07:21:40;1.30;;;1.30;;
60969;SDS011;46841;48.938;9.502;2024-01-10T07:24:08;1.20;;;1.20;;
60969;SDS011;46841;48.938;9.502;2024-01-10T07:26:35;1.30;;;1.30;;
60969;SDS011;46841;48.938;9.502;2024-01-10T07:29:01;1.30;;;1.30;;
60969;SDS011;46841;48.938;9.502;2024-01-10T07:31:30;1.20;;;1.20;;
60969;SDS011;46841;48.938;9.502;2024-01-10T07:33:56;1.20;;;1.20;;
60969;SDS011;46841;48.938;9.502;2024-01-10T07:36:25;1.30;;;1.30;;
60969;SDS011;46841;48.938;9.502;2024-01-10T07:38:59;1.30;;;1.30;;
60969;SDS011;46841;48.938;9.502;2024-01-10T07:41:25;1.30;;;1.30;;
60969;SDS011;46841;48.938;9.502;2024-01-10T07:43:52;1.30;;;1.30;;
60969;SDS011;46841;48.938;9.502;2024-01-10T07:46:27;1.23;;;1.23;;
60969;SDS011;46841;48.938;9.502;2024-01-10T07:48:56;1.38;;;1.38;;
60969;SDS011;46841;48.938;9.502;2024-01-10T07:51:21;1.30;;;1.30;;
60969;SDS011;46841;48.938;9.502;2024-01-10T07:53:48;1.30;;;1.30;;
60969;SDS011;46841;48.938;9.502;2024-01-10T07:56:14;1.20;;;1.20;;
60969;SDS011;46841;48.938;9.502;2024-01-10T07:58:41;1.30;;;1.30;;
60969;SDS011;46841;48.938;9.502;2024-01-10T08:01:07;1.30;;;1.30;;
60969;SDS011;46841;48.938;9.502;2024-01-10T08:03:35;1.20;;;1.20;;
60969;SDS011;46841;48.938;9.502;2024-01-10T08:06:02;1.30;;;1.30;;
60969;SDS011;46841;48.938;9.502;2024-01-10T08:08:28;1.30;;;1.30;;
60969;SDS011;46841;48.938;9.502;2024-01-10T08:10:56;1.20;;;1.20;;
60969;SDS011;46841;48.938;9.502;2024-01-10T08:13:24;1.25;;;1.25;;
60969;SDS011;46841;48.938;9.502;2024-01-10T08:15:49;1.30;;;1.30;;
60969;SDS011;46841;48.938;9.502;2024-01-10T08:18:18;1.20;;;1.20;;
60969;SDS011;46841;48.938;9.502;2024-01-10T08:20:44;1.30;;;1.30;;
60969;SDS011;46841;48.938;9.502;2024-01-10T08:23:09;1.27;;;1.27;;
60969;SDS011;46841;48.938;9.502;2024-01-10T08:25:36;1.30;;;1.30;;
60969;SDS011;46841;48.938;9.502;2024-01-10T08:28:03;1.30;;;1.30;;
60969;SDS011;46841;48.938;9.502;2024-01-10T08:30:29;1.30;;;1.30;;
60969;SDS011;46841;48.938;9.502;2024-01-10T08:32:55;1.20;;;1.20;;
60969;SDS011;46841;48.938;9.502;2024-01-10T08:35:21;1.30;;;1.30;;
60969;SDS011;46841;48.938;9.502;2024-01-10T08:37:47;1.30;;;1.30;;
60969;SDS011;46841;48.938;9.502;2024-01-10T08:40:12;1.20;;;1.20;;
60969;SDS011;46841;48.938;9.502;2024-01-10T08:45:05;1.30;;;1.30;;
60969;SDS011;46841;48.938;9.502;2024-01-10T08:47:34;1.30;;;1.30;;
60969;SDS011;46841;48.938;9.502;2024-01-10T08:50:03;1.20;;;1.20;;
60969;SDS011;46841;48.938;9.502;2024-01-10T08:52:33;1.40;;;1.40;;
60969;SDS011;46841;48.938;9.502;2024-01-10T08:54:58;1.30;;;1.30;;
60969;SDS011;46841;48.938;9.502;2024-01-10T08:57:25;1.40;;;1.40;;
60969;SDS011;46841;48.938;9.502;2024-01-10T08:59:52;1.30;;;1.30;;
60969;SDS011;46841;48.938;9.502;2024-01-10T09:02:18;1.27;;;1.27;;
60969;SDS011;46841;48.938;9.502;2024-01-10T09:04:46;1.30;;;1.30;;
60969;SDS011;46841;48.938;9.502;2024-01-10T09:07:13;1.35;;;1.35;;
60969;SDS011;46841;48.938;9.502;2024-01-10T09:09:38;1.23;;;1.23;;
60969;SDS011;46841;48.938;9.502;2024-01-10T09:12:04;1.10;;;1.10;;
60969;SDS011;46841;48.938;9.502;2024-01-10T09:14:30;1.20;;;1.20;;
60969;SDS011;46841;48.938;9.502;2024-01-10T09:16:55;1.10;;;1.10;;
60969;SDS011;46841;48.938;9.502;2024-01-10T09:19:35;1.20;;;1.20;;
60969;SDS011;46841;48.938;9.502;2024-01-10T09:22:01;1.20;;;1.20;;
60969;SDS011;46841;48.938;9.502;2024-01-10T09:24:29;1.20;;;1.20;;
60969;SDS011;46841;48.938;9.502;2024-01-10T09:26:58;1.15;;;1.15;;
60969;SDS011;46841;48.938;9.502;2024-01-10T09:29:24;1.10;;;1.10;;
60969;SDS011;46841;48.938;9.502;2024-01-10T09:31:56;1.10;;;1.10;;
60969;SDS011;46841;48.938;9.502;2024-01-10T09:34:21;1.10;;;1.10;;
60969;SDS011;46841;48.938;9.502;2024-01-10T09:36:47;1.10;;;1.10;;
60969;SDS011;46841;48.938;9.502;2024-01-10T09:39:13;1.10;;;1.10;;
60969;SDS011;46841;48.938;9.502;2024-01-10T09:41:40;1.10;;;1.10;;
60969;SDS011;46841;48.938;9.502;2024-01-10T09:44:14;1.10;;;1.10;;
60969;SDS011;46841;48.938;9.502;2024-01-10T09:46:43;1.10;;;1.10;;
60969;SDS011;46841;48.938;9.502;2024-01-10T09:49:15;1.10;;;1.10;;
60969;SDS011;46841;48.938;9.502;2024-01-10T09:51:41;1.10;;;1.10;;
60969;SDS011;46841;48.938;9.502;2024-01-10T09:54:07;1.10;;;1.10;;
60969;SDS011;46841;48.938;9.502;2024-01-10T09:56:32;1.10;;;1.10;;
60969;SDS011;46841;48.938;9.502;2024-01-10T09:58:58;1.10;;;1.10;;
60969;SDS011;46841;48.938;9.502;2024-01-10T10:01:26;1.10;;;1.10;;
60969;SDS011;46841;48.938;9.502;2024-01-10T10:03:52;1.00;;;1.00;;
60969;SDS011;46841;48.938;9.502;2024-01-10T10:06:18;1.10;;;1.10;;
60969;SDS011;46841;48.938;9.502;2024-01-10T10:08:44;1.10;;;1.10;;
60969;SDS011;46841;48.938;9.502;2024-01-10T10:11:13;1.08;;;1.08;;
60969;SDS011;46841;48.938;9.502;2024-01-10T10:13:41;1.00;;;1.00;;
60969;SDS011;46841;48.938;9.502;2024-01-10T10:16:07;1.10;;;1.10;;
60969;SDS011;46841;48.938;9.502;2024-01-10T10:18:38;1.10;;;1.10;;
60969;SDS011;46841;48.938;9.502;2024-01-10T10:21:12;1.00;;;1.00;;
60969;SDS011;46841;48.938;9.502;2024-01-10T10:23:43;1.10;;;1.10;;
60969;SDS011;46841;48.938;9.502;2024-01-10T10:26:22;1.10;;;1.10;;
60969;SDS011;46841;48.938;9.502;2024-01-10T10:28:49;1.10;;;1.10;;
60969;SDS011;46841;48.938;9.502;2024-01-10T10:31:17;1.10;;;1.10;;
60969;SDS011;46841;48.938;9.502;2024-01-10T10:33:45;1.10;;;1.10;;
60969;SDS011;46841;48.938;9.502;2024-01-10T10:36:13;1.10;;;1.10;;
60969;SDS011;46841;48.938;9.502;2024-01-10T10:38:39;1.00;;;1.00;;
60969;SDS011;46841;48.938;9.502;2024-01-10T10:41:05;0.90;;;0.90;;
60969;SDS011;46841;48.938;9.502;2024-01-10T10:43:37;1.00;;;1.00;;
60969;SDS011;46841;48.938;9.502;2024-01-10T10:48:34;1.00;;;1.00;;
60969;SDS011;46841;48.938;9.502;2024-01-10T10:53:37;1.08;;;1.08;;
60969;SDS011;46841;48.938;9.502;2024-01-10T10:56:06;1.10;;;1.10;;
60969;SDS011;46841;48.938;9.502;2024-01-10T10:58:37;1.10;;;1.10;;
60969;SDS011;46841;48.938;9.502;2024-01-10T11:01:05;1.10;;;1.10;;
60969;SDS011;46841;48.938;9.502;2024-01-10T11:03:37;1.10;;;1.10;;
60969;SDS011;46841;48.938;9.502;2024-01-10T11:06:05;1.10;;;1.10;;
60969;SDS011;46841;48.938;9.502;2024-01-10T11:08:48;1.10;;;1.10;;
60969;SDS011;46841;48.938;9.502;2024-01-10T11:25:03;1.00;;;1.00;;
60969;SDS011;46841;48.938;9.502;2024-01-10T11:27:30;1.08;;;1.08;;
60969;SDS011;46841;48.938;9.502;2024-01-10T11:29:56;0.90;;;0.90;;
60969;SDS011;46841;48.938;9.502;2024-01-10T11:32:24;1.00;;;1.00;;
60969;SDS011;46841;48.938;9.502;2024-01-10T11:34:59;1.00;;;1.00;;
60969;SDS011;46841;48.938;9.502;2024-01-10T11:37:28;1.00;;;1.00;;
60969;SDS011;46841;48.938;9.502;2024-01-10T11:40:07;1.00;;;1.00;;
60969;SDS011;46841;48.938;9.502;2024-01-10T11:42:53;1.07;;;1.07;;
60969;SDS011;46841;48.938;9.502;2024-01-10T11:47:57;1.00;;;1.00;;
60969;SDS011;46841;48.938;9.502;2024-01-10T11:50:23;1.00;;;1.00;;
60969;SDS011;46841;48.938;9.502;2024-01-10T11:52:52;1.00;;;1.00;;
60969;SDS011;46841;48.938;9.502;2024-01-10T11:56:02;1.00;;;1.00;;
60969;SDS011;46841;48.938;9.502;2024-01-10T11:58:14;0.90;;;0.90;;
60969;SDS011;46841;48.938;9.502;2024-01-10T12:00:42;0.90;;;0.90;;
60969;SDS011;46841;48.938;9.502;2024-01-10T12:03:09;1.00;;;1.00;;
60969;SDS011;46841;48.938;9.502;2024-01-10T12:05:36;0.90;;;0.90;;
60969;SDS011;46841;48.938;9.502;2024-01-10T12:08:06;0.90;;;0.90;;
60969;SDS011;46841;48.938;9.502;2024-01-10T12:10:45;1.00;;;1.00;;
60969;SDS011;46841;48.938;9.502;2024-01-10T12:13:10;1.00;;;1.00;;
60969;SDS011;46841;48.938;9.502;2024-01-10T12:15:36;1.00;;;1.00;;
60969;SDS011;46841;48.938;9.502;2024-01-10T12:18:04;0.90;;;0.90;;
60969;SDS011;46841;48.938;9.502;2024-01-10T12:20:30;1.00;;;1.00;;
60969;SDS011;46841;48.938;9.502;2024-01-10T12:22:56;1.00;;;1.00;;
60969;SDS011;46841;48.938;9.502;2024-01-10T12:25:21;1.00;;;1.00;;
60969;SDS011;46841;48.938;9.502;2024-01-10T12:27:47;1.00;;;1.00;;
60969;SDS011;46841;48.938;9.502;2024-01-10T12:30:13;1.00;;;1.00;;
60969;SDS011;46841;48.938;9.502;2024-01-10T12:32:38;1.00;;;1.00;;
60969;SDS011;46841;48.938;9.502;2024-01-10T12:35:05;1.05;;;1.05;;
60969;SDS011;46841;48.938;9.502;2024-01-10T12:37:31;0.90;;;0.90;;
60969;SDS011;46841;48.938;9.502;2024-01-10T12:39:57;1.00;;;1.00;;
60969;SDS011;46841;48.938;9.502;2024-01-10T12:42:23;1.00;;;1.00;;
60969;SDS011;46841;48.938;9.502;2024-01-10T12:44:49;0.90;;;0.90;;
60969;SDS011;46841;48.938;9.502;2024-01-10T12:47:21;0.90;;;0.90;;
60969;SDS011;46841;48.938;9.502;2024-01-10T12:49:47;0.90;;;0.90;;
60969;SDS011;46841;48.938;9.502;2024-01-10T12:52:13;0.90;;;0.90;;
60969;SDS011;46841;48.938;9.502;2024-01-10T12:54:39;1.00;;;1.00;;
60969;SDS011;46841;48.938;9.502;2024-01-10T12:57:05;0.90;;;0.90;;
60969;SDS011;46841;48.938;9.502;2024-01-10T12:59:32;0.95;;;0.95;;
60969;SDS011;46841;48.938;9.502;2024-01-10T13:01:58;0.90;;;0.90;;
60969;SDS011;46841;48.938;9.502;2024-01-10T13:06:50;0.90;;;0.90;;
60969;SDS011;46841;48.938;9.502;2024-01-10T13:09:16;0.90;;;0.90;;
60969;SDS011;46841;48.938;9.502;2024-01-10T13:11:42;0.80;;;0.80;;
60969;SDS011;46841;48.938;9.502;2024-01-10T13:14:07;0.93;;;0.93;;
60969;SDS011;46841;48.938;9.502;2024-01-10T13:16:33;0.90;;;0.90;;
60969;SDS011;46841;48.938;9.502;2024-01-10T13:19:00;0.88;;;0.88;;
60969;SDS011;46841;48.938;9.502;2024-01-10T13:21:25;0.80;;;0.80;;
60969;SDS011;46841;48.938;9.502;2024-01-10T13:23:51;0.80;;;0.80;;
60969;SDS011;46841;48.938;9.502;2024-01-10T13:26:17;0.80;;;0.80;;
60969;SDS011;46841;48.938;9.502;2024-01-10T13:28:42;0.90;;;0.90;;
60969;SDS011;46841;48.938;9.502;2024-01-10T13:31:08;1.00;;;1.00;;
60969;SDS011;46841;48.938;9.502;2024-01-10T13:33:37;1.00;;;1.00;;
60969;SDS011;46841;48.938;9.502;2024-01-10T13:36:03;1.00;;;1.00;;
60969;SDS011;46841;48.938;9.502;2024-01-10T13:38:29;1.00;;;1.00;;
60969;SDS011;46841;48.938;9.502;2024-01-10T13:40:55;1.00;;;1.00;;
60969;SDS011;46841;48.938;9.502;2024-01-10T13:43:21;1.00;;;1.00;;
60969;SDS011;46841;48.938;9.502;2024-01-10T13:45:46;1.00;;;1.00;;
60969;SDS011;46841;48.938;9.502;2024-01-10T13:48:13;1.08;;;1.08;;
60969;SDS011;46841;48.938;9.502;2024-01-10T13:50:39;0.90;;;0.90;;
60969;SDS011;46841;48.938;9.502;2024-01-10T13:53:04;0.90;;;0.90;;
60969;SDS011;46841;48.938;9.502;2024-01-10T13:55:31;1.00;;;1.00;;
60969;SDS011;46841;48.938;9.502;2024-01-10T13:57:56;0.97;;;0.97;;
60969;SDS011;46841;48.938;9.502;2024-01-10T14:00:22;1.00;;;1.00;;
60969;SDS011;46841;48.938;9.502;2024-01-10T14:02:48;0.90;;;0.90;;
60969;SDS011;46841;48.938;9.502;2024-01-10T14:05:14;0.90;;;0.90;;
60969;SDS011;46841;48.938;9.502;2024-01-10T14:07:40;1.00;;;1.00;;
60969;SDS011;46841;48.938;9.502;2024-01-10T14:10:10;0.90;;;0.90;;
60969;SDS011;46841;48.938;9.502;2024-01-10T14:12:36;0.90;;;0.90;;
60969;SDS011;46841;48.938;9.502;2024-01-10T14:15:02;1.00;;;1.00;;
60969;SDS011;46841;48.938;9.502;2024-01-10T14:17:29;1.00;;;1.00;;
60969;SDS011;46841;48.938;9.502;2024-01-10T14:19:55;0.90;;;0.90;;
60969;SDS011;46841;48.938;9.502;2024-01-10T14:22:20;0.80;;;0.80;;
60969;SDS011;46841;48.938;9.502;2024-01-10T14:24:51;1.00;;;1.00;;
60969;SDS011;46841;48.938;9.502;2024-01-10T14:27:19;0.90;;;0.90;;
60969;SDS011;46841;48.938;9.502;2024-01-10T14:29:45;1.00;;;1.00;;
60969;SDS011;46841;48.938;9.502;2024-01-10T14:32:11;1.00;;;1.00;;
60969;SDS011;46841;48.938;9.502;2024-01-10T14:34:41;1.05;;;1.05;;
60969;SDS011;46841;48.938;9.502;2024-01-10T14:37:07;1.00;;;1.00;;
60969;SDS011;46841;48.938;9.502;2024-01-10T14:39:34;1.10;;;1.10;;
60969;SDS011;46841;48.938;9.502;2024-01-10T14:42:04;1.10;;;1.10;;
60969;SDS011;46841;48.938;9.502;2024-01-10T14:44:34;1.00;;;1.00;;
60969;SDS011;46841;48.938;9.502;2024-01-10T14:47:00;1.10;;;1.10;;
60969;SDS011;46841;48.938;9.502;2024-01-10T14:49:25;1.00;;;1.00;;
60969;SDS011;46841;48.938;9.502;2024-01-10T14:51:51;0.90;;;0.90;;
60969;SDS011;46841;48.938;9.502;2024-01-10T14:54:17;1.00;;;1.00;;
60969;SDS011;46841;48.938;9.502;2024-01-10T14:56:46;0.98;;;0.98;;
60969;SDS011;46841;48.938;9.502;2024-01-10T14:59:14;1.00;;;1.00;;
60969;SDS011;46841;48.938;9.502;2024-01-10T15:04:10;1.10;;;1.10;;
60969;SDS011;46841;48.938;9.502;2024-01-10T15:06:41;1.00;;;1.00;;
60969;SDS011;46841;48.938;9.502;2024-01-10T15:09:09;1.10;;;1.10;;
60969;SDS011;46841;48.938;9.502;2024-01-10T15:11:35;1.10;;;1.10;;
60969;SDS011;46841;48.938;9.502;2024-01-10T15:14:17;1.10;;;1.10;;
60969;SDS011;46841;48.938;9.502;2024-01-10T15:16:43;1.10;;;1.10;;
60969;SDS011;46841;48.938;9.502;2024-01-10T15:19:08;1.10;;;1.10;;
60969;SDS011;46841;48.938;9.502;2024-01-10T15:21:34;1.10;;;1.10;;
60969;SDS011;46841;48.938;9.502;2024-01-10T15:23:59;1.10;;;1.10;;